createdAt,value
2023-02-14T00:00:29.719Z,5.60
2023-02-14T00:02:57.115Z,5.30
2023-02-14T00:05:23.797Z,5.40
2023-02-14T00:07:50.445Z,5.93
2023-02-14T00:10:17.516Z,5.63
2023-02-14T00:12:43.970Z,5.05
2023-02-14T00:15:22.923Z,5.55
2023-02-14T00:17:55.225Z,4.65
2023-02-14T00:20:23.012Z,5.63
2023-02-14T00:22:50.101Z,5.45
2023-02-14T00:25:16.985Z,5.05
2023-02-14T00:27:43.645Z,6.05
2023-02-14T00:30:12.657Z,5.55
2023-02-14T00:32:40.079Z,5.45
2023-02-14T00:35:08.873Z,5.22
2023-02-14T00:37:36.069Z,5.60
2023-02-14T00:40:02.586Z,5.68
2023-02-14T00:42:29.068Z,5.72
2023-02-14T00:44:55.560Z,5.63
2023-02-14T00:47:22.059Z,5.55
2023-02-14T00:49:48.550Z,5.93
2023-02-14T00:52:14.962Z,5.80
2023-02-14T00:54:41.415Z,5.25
2023-02-14T00:57:07.920Z,5.50
2023-02-14T00:59:34.360Z,5.00
2023-02-14T01:02:01.098Z,5.70
2023-02-14T01:04:27.622Z,5.47
2023-02-14T01:06:54.061Z,5.75
2023-02-14T01:09:20.515Z,5.22
2023-02-14T01:11:46.985Z,6.10
2023-02-14T01:14:13.412Z,5.88
2023-02-14T01:16:40.052Z,5.88
2023-02-14T01:19:06.622Z,5.45
2023-02-14T01:21:34.172Z,5.55
2023-02-14T01:24:04.684Z,5.53
2023-02-14T01:26:31.726Z,5.38
2023-02-14T01:28:58.782Z,5.25
2023-02-14T01:31:31.494Z,4.85
2023-02-14T01:33:58.828Z,5.32
2023-02-14T01:36:28.950Z,5.10
2023-02-14T01:38:59.127Z,5.45
2023-02-14T01:41:27.864Z,5.65
2023-02-14T01:44:17.505Z,5.30
2023-02-14T01:46:45.906Z,4.78
2023-02-14T01:49:18.456Z,5.45
2023-02-14T01:51:55.515Z,5.97
2023-02-14T01:54:25.958Z,4.80
2023-02-14T01:56:57.913Z,5.80
2023-02-14T01:59:29.986Z,5.30
2023-02-14T02:01:56.589Z,5.40
2023-02-14T02:04:37.850Z,5.22
2023-02-14T02:07:11.352Z,5.53
2023-02-14T02:09:48.896Z,4.85
2023-02-14T02:12:15.567Z,5.00
2023-02-14T02:14:42.967Z,5.47
2023-02-14T02:17:15.365Z,5.57
2023-02-14T02:20:06.662Z,5.78
2023-02-14T02:22:42.165Z,4.60
2023-02-14T02:25:08.553Z,5.50
2023-02-14T02:27:55.196Z,5.30
2023-02-14T02:31:07.854Z,4.95
2023-02-14T02:34:00.200Z,5.15
2023-02-14T02:36:45.224Z,5.30
2023-02-14T02:39:17.866Z,5.00
2023-02-14T02:42:02.971Z,4.35
2023-02-14T02:44:51.986Z,5.30
2023-02-14T02:47:27.719Z,4.72
2023-02-14T02:50:25.336Z,5.10
2023-02-14T02:53:25.840Z,4.68
2023-02-14T02:56:21.947Z,5.15
2023-02-14T02:59:06.673Z,4.97
2023-02-14T03:01:37.537Z,4.88
2023-02-14T03:04:27.681Z,4.47
2023-02-14T03:06:55.383Z,5.00
2023-02-14T03:09:27.882Z,4.75
2023-02-14T03:12:18.469Z,4.65
2023-02-14T03:15:02.636Z,5.13
2023-02-14T03:17:33.151Z,4.50
2023-02-14T03:20:16.220Z,5.20
2023-02-14T03:23:00.935Z,4.35
2023-02-14T03:25:47.815Z,4.57
2023-02-14T03:28:20.147Z,5.50
2023-02-14T03:30:57.477Z,5.60
2023-02-14T03:33:56.192Z,4.65
2023-02-14T03:36:29.470Z,5.05
2023-02-14T03:39:14.159Z,5.18
2023-02-14T03:41:49.097Z,5.05
2023-02-14T03:44:20.487Z,5.47
2023-02-14T03:46:51.778Z,5.38
2023-02-14T03:49:23.769Z,5.40
2023-02-14T03:51:55.035Z,5.60
2023-02-14T03:54:24.412Z,5.22
2023-02-14T03:59:28.778Z,4.97
2023-02-14T04:02:07.035Z,4.85
2023-02-14T04:04:37.733Z,5.22
2023-02-14T04:07:19.046Z,4.97
2023-02-14T04:09:46.302Z,4.50
2023-02-14T04:12:18.196Z,4.95
2023-02-14T04:14:46.312Z,4.63
2023-02-14T04:17:31.020Z,5.00
2023-02-14T04:19:57.426Z,5.03
2023-02-14T04:22:23.832Z,4.55
2023-02-14T04:24:50.294Z,4.35
2023-02-14T04:27:16.772Z,4.28
2023-02-14T04:29:46.666Z,5.13
2023-02-14T04:32:16.634Z,5.07
2023-02-14T04:34:43.418Z,4.63
2023-02-14T04:37:10.180Z,4.93
2023-02-14T04:39:37.434Z,4.85
2023-02-14T04:42:05.163Z,5.03
2023-02-14T04:44:33.866Z,4.72
2023-02-14T04:47:01.152Z,4.63
2023-02-14T04:49:27.897Z,4.00
2023-02-14T04:51:54.348Z,5.30
2023-02-14T04:54:20.764Z,4.20
2023-02-14T04:56:47.200Z,4.65
2023-02-14T04:59:14.588Z,4.53
2023-02-14T05:01:41.413Z,4.43
2023-02-14T05:04:08.868Z,4.53
2023-02-14T05:06:35.483Z,4.50
2023-02-14T05:09:02.314Z,4.07
2023-02-14T05:11:29.439Z,4.60
2023-02-14T05:13:56.148Z,4.57
2023-02-14T05:16:23.092Z,4.47
2023-02-14T05:18:49.721Z,4.13
2023-02-14T05:21:16.197Z,4.72
2023-02-14T05:23:42.599Z,4.70
2023-02-14T05:26:09.093Z,4.50
2023-02-14T05:28:35.978Z,4.80
2023-02-14T05:31:03.084Z,4.28
2023-02-14T05:33:29.925Z,4.85
2023-02-14T05:35:59.804Z,4.50
2023-02-14T05:38:26.638Z,4.45
2023-02-14T05:40:53.115Z,4.65
2023-02-14T05:43:19.559Z,4.63
2023-02-14T05:45:46.035Z,4.63
2023-02-14T05:48:13.268Z,4.30
2023-02-14T05:50:39.913Z,3.85
2023-02-14T05:53:06.319Z,3.95
2023-02-14T05:55:32.774Z,4.15
2023-02-14T05:57:59.206Z,4.85
2023-02-14T06:00:25.868Z,4.25
2023-02-14T06:02:52.313Z,4.35
2023-02-14T06:05:20.157Z,4.60
2023-02-14T06:07:50.689Z,4.30
2023-02-14T06:10:23.152Z,3.78
2023-02-14T06:12:50.693Z,4.05
2023-02-14T06:15:17.351Z,3.88
2023-02-14T06:17:44.376Z,4.28
2023-02-14T06:20:11.550Z,4.05
2023-02-14T06:22:39.057Z,4.38
2023-02-14T06:25:06.316Z,4.15
2023-02-14T06:27:33.259Z,4.60
2023-02-14T06:30:00.483Z,5.13
2023-02-14T06:32:27.084Z,5.00
2023-02-14T06:34:53.512Z,4.25
2023-02-14T06:37:20.126Z,4.70
2023-02-14T06:39:46.547Z,4.75
2023-02-14T06:42:13.062Z,4.72
2023-02-14T06:44:39.515Z,4.47
2023-02-14T06:47:06.014Z,4.32
2023-02-14T06:49:32.434Z,4.32
2023-02-14T06:51:58.902Z,4.20
2023-02-14T06:54:25.386Z,4.82
2023-02-14T06:56:51.855Z,5.00
2023-02-14T06:59:18.431Z,4.25
2023-02-14T07:01:45.101Z,4.40
2023-02-14T07:04:11.758Z,4.93
2023-02-14T07:06:38.262Z,4.47
2023-02-14T07:09:05.456Z,4.57
2023-02-14T07:11:32.002Z,4.55
2023-02-14T07:13:58.773Z,4.07
2023-02-14T07:16:25.242Z,4.53
2023-02-14T07:18:51.698Z,4.13
2023-02-14T07:21:18.122Z,4.97
2023-02-14T07:23:47.666Z,3.97
2023-02-14T07:26:18.036Z,4.70
2023-02-14T07:28:51.706Z,4.28
2023-02-14T07:31:20.005Z,4.28
2023-02-14T07:34:10.417Z,4.30
2023-02-14T07:36:38.816Z,3.67
2023-02-14T07:39:05.690Z,3.95
2023-02-14T07:41:32.343Z,4.18
2023-02-14T07:43:58.948Z,4.97
2023-02-14T07:46:25.629Z,4.05
2023-02-14T07:48:52.582Z,4.18
2023-02-14T07:51:19.332Z,4.38
2023-02-14T07:53:45.798Z,4.13
2023-02-14T07:56:12.259Z,4.47
2023-02-14T07:58:38.731Z,4.32
2023-02-14T08:01:05.355Z,4.78
2023-02-14T08:03:31.761Z,4.50
2023-02-14T08:05:58.149Z,4.45
2023-02-14T08:08:26.411Z,5.22
2023-02-14T08:10:52.945Z,4.85
2023-02-14T08:13:19.549Z,4.65
2023-02-14T08:16:04.518Z,5.25
2023-02-14T08:18:42.058Z,4.82
2023-02-14T08:21:11.121Z,4.78
2023-02-14T08:23:38.488Z,5.00
2023-02-14T08:26:05.678Z,5.72
2023-02-14T08:28:33.122Z,8.15
2023-02-14T08:31:00.266Z,6.43
2023-02-14T08:33:27.164Z,5.45
2023-02-14T08:35:53.704Z,4.88
2023-02-14T08:38:20.409Z,5.10
2023-02-14T08:40:47.404Z,5.25
2023-02-14T08:43:14.435Z,4.93
2023-02-14T08:45:41.636Z,5.68
2023-02-14T08:48:11.201Z,4.82
2023-02-14T08:50:38.661Z,4.22
2023-02-14T08:53:09.928Z,4.30
2023-02-14T08:55:37.823Z,4.68
2023-02-14T08:58:05.215Z,4.85
2023-02-14T09:00:32.796Z,4.78
2023-02-14T09:03:02.827Z,5.03
2023-02-14T09:05:29.524Z,5.47
2023-02-14T09:07:56.568Z,5.28
2023-02-14T09:10:25.063Z,5.22
2023-02-14T09:12:52.157Z,5.60
2023-02-14T09:15:18.829Z,6.65
2023-02-14T09:17:45.558Z,6.20
2023-02-14T09:20:13.816Z,5.45
2023-02-14T09:22:40.446Z,6.00
2023-02-14T09:25:07.239Z,5.30
2023-02-14T09:27:33.690Z,5.50
2023-02-14T09:30:00.390Z,5.15
2023-02-14T09:32:27.315Z,4.63
2023-02-14T09:34:53.957Z,5.20
2023-02-14T09:37:39.224Z,5.40
2023-02-14T09:40:06.208Z,5.35
2023-02-14T09:42:48.757Z,4.82
2023-02-14T09:45:26.432Z,5.20
2023-02-14T09:48:28.217Z,5.00
2023-02-14T09:50:59.397Z,4.55
2023-02-14T09:53:39.561Z,4.35
2023-02-14T09:56:15.095Z,4.88
2023-02-14T09:59:10.514Z,4.40
2023-02-14T10:01:42.902Z,4.95
2023-02-14T10:04:24.952Z,4.82
2023-02-14T10:06:58.599Z,4.95
2023-02-14T10:09:34.146Z,5.70
2023-02-14T10:12:01.860Z,5.57
2023-02-14T10:14:40.272Z,4.97
2023-02-14T10:17:15.176Z,5.05
2023-02-14T10:19:46.006Z,5.15
2023-02-14T10:22:23.251Z,5.88
2023-02-14T10:24:58.899Z,5.72
2023-02-14T10:27:42.397Z,5.60
2023-02-14T10:30:21.208Z,6.45
2023-02-14T10:33:17.513Z,6.07
2023-02-14T10:35:56.808Z,5.70
2023-02-14T10:38:45.238Z,5.95
2023-02-14T10:41:17.872Z,6.88
2023-02-14T10:44:21.685Z,6.57
2023-02-14T10:46:48.151Z,6.50
2023-02-14T10:49:51.974Z,6.25
2023-02-14T10:52:32.247Z,6.25
2023-02-14T10:55:02.592Z,7.28
2023-02-14T10:57:36.623Z,6.38
2023-02-14T11:00:07.874Z,6.63
2023-02-14T11:02:39.949Z,7.47
2023-02-14T11:05:07.813Z,6.90
2023-02-14T11:07:34.782Z,7.18
2023-02-14T11:10:01.780Z,6.93
2023-02-14T11:12:40.144Z,6.93
2023-02-14T11:15:30.669Z,6.68
2023-02-14T11:18:24.555Z,7.45
2023-02-14T11:21:04.154Z,7.70
2023-02-14T11:23:42.600Z,6.50
2023-02-14T11:26:32.545Z,7.30
2023-02-14T11:29:10.710Z,7.60
2023-02-14T11:31:39.651Z,7.78
2023-02-14T11:34:23.844Z,6.57
2023-02-14T11:36:50.515Z,7.30
2023-02-14T11:39:30.792Z,7.72
2023-02-14T11:42:01.177Z,7.47
2023-02-14T11:44:31.609Z,7.80
2023-02-14T11:47:17.654Z,7.47
2023-02-14T11:50:01.433Z,8.85
2023-02-14T11:52:29.816Z,8.05
2023-02-14T11:54:58.002Z,8.23
2023-02-14T11:57:33.277Z,8.38
2023-02-14T12:00:01.770Z,8.13
2023-02-14T12:02:38.318Z,7.78
2023-02-14T12:05:20.301Z,8.10
2023-02-14T12:07:50.792Z,7.30
2023-02-14T12:10:29.429Z,8.02
2023-02-14T12:13:07.466Z,8.90
2023-02-14T12:15:52.898Z,8.52
2023-02-14T12:18:37.350Z,8.45
2023-02-14T12:21:13.110Z,8.10
2023-02-14T12:24:04.275Z,8.52
2023-02-14T12:26:38.966Z,9.23
2023-02-14T12:29:26.195Z,7.90
2023-02-14T12:34:20.546Z,7.88
2023-02-14T12:37:14.989Z,8.20
2023-02-14T12:40:02.575Z,7.20
2023-02-14T12:42:41.393Z,7.28
2023-02-14T12:45:20.519Z,7.05
2023-02-14T12:48:06.175Z,6.88
2023-02-14T12:50:35.419Z,7.00
2023-02-14T12:53:13.842Z,6.18
2023-02-14T12:55:55.630Z,5.88
2023-02-14T12:58:56.541Z,5.90
2023-02-14T13:01:50.934Z,6.03
2023-02-14T13:04:35.695Z,5.88
2023-02-14T13:07:25.603Z,6.78
2023-02-14T13:10:04.586Z,5.03
2023-02-14T13:12:52.941Z,6.57
2023-02-14T13:15:40.747Z,5.55
2023-02-14T13:18:41.412Z,6.10
2023-02-14T13:21:11.625Z,5.22
2023-02-14T13:23:44.939Z,5.45
2023-02-14T13:26:19.833Z,4.85
2023-02-14T13:29:03.245Z,6.00
2023-02-14T13:31:31.688Z,6.32
2023-02-14T13:34:25.544Z,5.53
2023-02-14T13:36:55.368Z,5.72
2023-02-14T13:39:54.740Z,6.43
2023-02-14T13:42:50.173Z,7.47
2023-02-14T13:45:34.558Z,7.20
2023-02-14T13:48:13.041Z,6.97
2023-02-14T13:50:41.402Z,6.55
2023-02-14T13:53:13.036Z,6.82
2023-02-14T13:55:45.564Z,6.85
2023-02-14T13:58:19.172Z,6.78
2023-02-14T14:00:47.070Z,7.13
2023-02-14T14:03:15.609Z,6.95
2023-02-14T14:05:47.928Z,8.02
2023-02-14T14:08:20.636Z,6.20
2023-02-14T14:10:49.857Z,6.50
2023-02-14T14:13:41.632Z,6.85
2023-02-14T14:16:23.394Z,6.20
2023-02-14T14:24:33.265Z,6.55
2023-02-14T14:27:01.050Z,6.38
2023-02-14T14:29:31.921Z,6.20
2023-02-14T14:31:58.748Z,5.90
2023-02-14T14:34:28.219Z,6.75
2023-02-14T14:37:05.275Z,6.43
2023-02-14T14:39:33.907Z,6.55
2023-02-14T14:42:09.668Z,6.38
2023-02-14T14:44:46.044Z,6.68
2023-02-14T14:47:19.846Z,7.07
2023-02-14T14:49:47.153Z,6.10
2023-02-14T14:52:27.665Z,6.63
2023-02-14T14:54:54.433Z,6.50
2023-02-14T14:57:21.520Z,6.10
2023-02-14T14:59:49.445Z,6.80
2023-02-14T15:02:26.348Z,7.82
2023-02-14T15:04:56.215Z,6.55
2023-02-14T15:07:33.903Z,7.13
2023-02-14T15:10:01.254Z,7.25
2023-02-14T15:12:48.282Z,7.93
2023-02-14T15:15:17.840Z,7.38
2023-02-14T15:17:45.466Z,7.18
2023-02-14T15:20:19.997Z,7.57
2023-02-14T15:22:49.500Z,8.23
2023-02-14T15:25:27.059Z,8.20
2023-02-14T15:27:53.783Z,8.27
2023-02-14T15:30:20.613Z,7.82
2023-02-14T15:32:49.445Z,7.25
2023-02-14T15:35:29.113Z,7.07
2023-02-14T15:37:57.743Z,7.25
2023-02-14T15:40:27.421Z,7.45
2023-02-14T15:42:58.163Z,7.35
2023-02-14T15:45:27.980Z,6.65
2023-02-14T15:48:11.940Z,7.10
2023-02-14T15:50:46.562Z,7.47
2023-02-14T15:53:18.921Z,7.22
2023-02-14T15:55:50.542Z,6.90
2023-02-14T15:58:31.332Z,7.07
2023-02-14T16:00:59.473Z,7.15
2023-02-14T16:03:29.270Z,7.40
2023-02-14T16:05:55.853Z,7.38
2023-02-14T16:08:27.355Z,6.85
2023-02-14T16:11:14.421Z,7.53
2023-02-14T16:13:43.629Z,6.68
2023-02-14T16:16:12.220Z,6.72
2023-02-14T16:18:44.729Z,6.30
2023-02-14T16:21:21.673Z,6.45
2023-02-14T16:24:06.848Z,6.95
2023-02-14T16:26:44.540Z,6.57
2023-02-14T16:29:22.609Z,6.80
2023-02-14T16:34:41.812Z,9.60
2023-02-14T16:37:20.998Z,8.98
2023-02-14T16:39:48.801Z,9.73
2023-02-14T16:42:17.093Z,9.25
2023-02-14T16:44:44.910Z,9.60
2023-02-14T16:47:16.545Z,9.25
2023-02-14T16:49:43.069Z,8.48
2023-02-14T16:52:25.383Z,9.38
2023-02-14T16:54:53.706Z,7.97
2023-02-14T16:57:27.820Z,8.63
2023-02-14T16:59:55.706Z,8.15
2023-02-14T17:02:22.514Z,8.57
2023-02-14T17:04:49.003Z,7.57
2023-02-14T17:07:17.070Z,7.78
2023-02-14T17:09:50.177Z,8.05
2023-02-14T17:12:20.994Z,7.88
2023-02-14T17:14:51.512Z,8.88
2023-02-14T17:17:19.803Z,7.63
2023-02-14T17:19:46.446Z,8.15
2023-02-14T17:22:14.493Z,8.02
2023-02-14T17:24:41.328Z,7.75
2023-02-14T17:27:08.542Z,8.23
2023-02-14T17:29:35.106Z,7.93
2023-02-14T17:32:01.746Z,7.00
2023-02-14T17:34:32.406Z,7.28
2023-02-14T17:36:59.591Z,7.32
2023-02-14T17:39:26.510Z,7.15
2023-02-14T17:41:53.139Z,8.10
2023-02-14T17:44:19.611Z,7.68
2023-02-14T17:46:46.149Z,8.35
2023-02-14T17:49:12.747Z,7.72
2023-02-14T17:51:39.442Z,7.88
2023-02-14T17:54:05.876Z,7.50
2023-02-14T17:56:32.395Z,7.47
2023-02-14T17:58:59.876Z,7.50
2023-02-14T18:01:31.311Z,8.43
2023-02-14T18:03:57.863Z,9.05
2023-02-14T18:06:24.381Z,8.32
2023-02-14T18:08:56.931Z,7.82
2023-02-14T18:11:26.484Z,7.88
2023-02-14T18:13:55.303Z,8.63
2023-02-14T18:16:22.635Z,8.13
2023-02-14T18:18:49.118Z,7.18
2023-02-14T18:21:18.816Z,7.85
2023-02-14T18:23:45.279Z,7.82
2023-02-14T18:26:13.879Z,8.82
2023-02-14T18:28:40.671Z,7.53
2023-02-14T18:31:13.307Z,7.85
2023-02-14T18:33:40.570Z,8.82
2023-02-14T18:36:12.504Z,8.77
2023-02-14T18:38:43.451Z,7.40
2023-02-14T18:41:13.748Z,7.30
2023-02-14T18:43:44.387Z,8.52
2023-02-14T18:46:17.400Z,7.90
2023-02-14T18:48:44.554Z,8.02
2023-02-14T18:51:13.846Z,8.55
2023-02-14T18:53:41.414Z,8.60
2023-02-14T18:56:14.419Z,8.77
2023-02-14T18:58:46.239Z,9.70
2023-02-14T19:01:15.987Z,8.13
2023-02-14T19:03:43.076Z,8.05
2023-02-14T19:06:11.634Z,7.63
2023-02-14T19:08:40.349Z,7.50
2023-02-14T19:11:28.615Z,8.75
2023-02-14T19:13:58.218Z,7.50
2023-02-14T19:16:27.768Z,7.78
2023-02-14T19:18:55.004Z,7.85
2023-02-14T19:21:21.793Z,8.73
2023-02-14T19:23:49.548Z,8.10
2023-02-14T19:26:18.879Z,7.78
2023-02-14T19:28:47.156Z,8.18
2023-02-14T19:31:15.111Z,8.32
2023-02-14T19:33:44.320Z,7.10
2023-02-14T19:38:43.442Z,7.28
2023-02-14T19:41:21.136Z,7.05
2023-02-14T19:43:48.824Z,7.03
2023-02-14T19:46:16.635Z,7.10
2023-02-14T19:48:44.510Z,8.00
2023-02-14T19:51:21.130Z,6.82
2023-02-14T19:53:48.151Z,7.38
2023-02-14T19:56:19.751Z,7.55
2023-02-14T19:58:46.357Z,7.68
2023-02-14T20:01:24.094Z,7.45
2023-02-14T20:04:30.766Z,7.90
2023-02-14T20:06:57.913Z,8.35
2023-02-14T20:09:25.599Z,7.45
2023-02-14T20:11:54.612Z,7.78
2023-02-14T20:14:43.670Z,7.30
2023-02-14T20:17:17.119Z,7.55
2023-02-14T20:19:43.561Z,8.10
2023-02-14T20:22:10.072Z,9.05
2023-02-14T20:24:36.523Z,8.23
2023-02-14T20:27:03.075Z,8.20
2023-02-14T20:29:29.882Z,8.45
2023-02-14T20:32:00.060Z,8.05
2023-02-14T20:34:27.665Z,8.40
2023-02-14T20:36:55.763Z,8.82
2023-02-14T20:39:27.051Z,8.20
2023-02-14T20:41:54.210Z,8.32
2023-02-14T20:44:21.535Z,8.43
2023-02-14T20:46:53.800Z,9.27
2023-02-14T20:49:22.385Z,10.07
2023-02-14T20:51:50.216Z,8.48
2023-02-14T20:54:18.584Z,9.75
2023-02-14T20:56:45.979Z,8.48
2023-02-14T20:59:13.148Z,9.02
2023-02-14T21:01:40.194Z,9.77
2023-02-14T21:04:07.135Z,9.48
2023-02-14T21:06:35.511Z,10.02
2023-02-14T21:09:02.472Z,10.27
2023-02-14T21:11:29.021Z,9.40
2023-02-14T21:14:00.612Z,8.95
2023-02-14T21:16:29.207Z,9.35
2023-02-14T21:19:00.804Z,9.05
2023-02-14T21:21:36.394Z,9.50
2023-02-14T21:24:17.424Z,12.68
2023-02-14T21:26:44.200Z,12.13
2023-02-14T21:29:10.965Z,11.90
2023-02-14T21:31:38.550Z,10.77
2023-02-14T21:34:05.242Z,9.90
2023-02-14T21:36:35.445Z,10.07
2023-02-14T21:39:03.760Z,9.43
2023-02-14T21:41:31.491Z,9.40
2023-02-14T21:44:01.455Z,8.55
2023-02-14T21:46:35.766Z,8.65
2023-02-14T21:49:22.441Z,10.13
2023-02-14T21:51:49.425Z,8.77
2023-02-14T21:54:16.621Z,8.95
2023-02-14T21:56:43.876Z,9.88
2023-02-14T21:59:10.922Z,9.40
2023-02-14T22:01:39.689Z,9.23
2023-02-14T22:04:08.936Z,9.63
2023-02-14T22:09:04.818Z,8.38
2023-02-14T22:11:31.710Z,9.27
2023-02-14T22:13:59.205Z,8.98
2023-02-14T22:16:26.893Z,9.90
2023-02-14T22:18:53.659Z,9.13
2023-02-14T22:21:23.498Z,8.45
2023-02-14T22:23:50.689Z,8.57
2023-02-14T22:26:26.003Z,8.43
2023-02-14T22:28:57.752Z,9.27
2023-02-14T22:31:25.888Z,9.13
2023-02-14T22:33:53.366Z,9.80
2023-02-14T22:36:20.139Z,8.90
2023-02-14T22:38:49.014Z,8.02
2023-02-14T22:41:18.410Z,8.77
2023-02-14T22:43:45.575Z,8.90
2023-02-14T22:46:17.592Z,9.98
2023-02-14T22:48:44.366Z,9.50
2023-02-14T22:51:12.043Z,8.88
2023-02-14T22:53:39.329Z,9.75
2023-02-14T22:56:27.556Z,10.07
2023-02-14T22:59:04.670Z,8.43
2023-02-14T23:01:32.838Z,9.32
2023-02-14T23:04:01.074Z,9.43
2023-02-14T23:06:29.181Z,9.40
2023-02-14T23:08:56.296Z,8.80
2023-02-14T23:11:28.863Z,9.15
2023-02-14T23:14:14.580Z,8.15
2023-02-14T23:17:00.638Z,8.98
2023-02-14T23:19:48.607Z,8.35
2023-02-14T23:22:20.862Z,8.43
2023-02-14T23:25:01.295Z,9.57
2023-02-14T23:27:37.027Z,7.20
2023-02-14T23:30:06.334Z,7.00
2023-02-14T23:34:59.490Z,7.65
2023-02-14T23:37:25.954Z,7.95
2023-02-14T23:39:52.370Z,7.53
2023-02-14T23:42:18.924Z,8.95
2023-02-14T23:44:47.110Z,7.40
2023-02-14T23:47:14.421Z,8.02
2023-02-14T23:49:41.459Z,8.43
2023-02-14T23:52:10.911Z,8.27
2023-02-14T23:54:38.329Z,7.20
2023-02-14T23:57:05.922Z,6.65
2023-02-14T23:59:32.335Z,6.05
